Thunder radar more information blitzortung!


Radar de pluja more information rain snow radar


Visita la nostra xarxa de llocs de meteo:

Template documentation
and downloads

And another site



No particular awareness of the weather is required.    There are no Weather-warnings

Pagina Historial Weather Underground text

Diari Resum Agost 5, 2017 Unitats:  Imperial    Mètric   Tant
« Previous Dia
SegĂźent Dia »
Diari Setmana Mensual Anual Personalitzada
  Maxima: Minima: Media:
Temperatura: 97.5 °F 73.4 °F 86.7 °F
Punt de rosada: 68.5 °F 59.7 °F 62.8 °F
Humitat: 74 % 31 % 47 %
Wind Speed: 15.4 mph 0 mph 4.3 mph
RĂ fegues de vent: 15.4 mph - -
Vent:- - SSW
Pression baro: 30 in 29.8 in -
Precipitacions: 0 in    
Historical Graphs
 
 
Dades de taula per Agost 5, 2017
Temps Temperatura Punt de rosada Pression baro Vent Wind Speed RĂ fegues de vent Humitat Rainfall Rate (Hourly)
00:00 74.8 °F 65.1 °F 29.9 in Calm     72 % 0 in
00:02 79.3 °F 65.7 °F 29.9 in SW 1.2 mph   63 % 0 in
00:07 79.3 °F 65.7 °F 29.9 in SW 1.2 mph   63 % 0 in
00:10 74.8 °F 65.1 °F 29.9 in Calm     72 % 0 in
00:12 79.2 °F 65.5 °F 29.9 in Calm     63 % 0 in
00:20 74.8 °F 65.1 °F 29.9 in Calm     72 % 0 in
00:30 74.7 °F 64.9 °F 29.9 in Calm     72 % 0 in
00:40 73.9 °F 64.2 °F 29.9 in Calm   2 mph 72 % 0 in
00:50 73.8 °F 64.6 °F 29.9 in Calm   1 mph 73 % 0 in
01:00 73.8 °F 64.6 °F 29.9 in Calm     73 % 0 in
01:10 73.8 °F 64.9 °F 29.9 in Calm     74 % 0 in
01:20 73.8 °F 64.9 °F 29.9 in Calm     74 % 0 in
01:30 73.8 °F 64.9 °F 29.9 in Calm     74 % 0 in
01:40 73.6 °F 64.8 °F 29.9 in Calm     74 % 0 in
01:50 73.4 °F 64.6 °F 29.9 in Calm     74 % 0 in
02:00 73.8 °F 64.9 °F 29.9 in Calm     74 % 0 in
02:10 73.8 °F 64.9 °F 29.9 in Calm     74 % 0 in
02:20 73.4 °F 64.6 °F 29.9 in Calm     74 % 0 in
02:30 73.8 °F 64.9 °F 29.9 in WSW 1 mph 1 mph 74 % 0 in
02:40 74.7 °F 65.5 °F 29.9 in Calm     73 % 0 in
02:50 75.6 °F 65.8 °F 29.9 in NE 1 mph 2 mph 72 % 0 in
03:00 75.7 °F 65.7 °F 29.9 in NE 1 mph 2 mph 71 % 0 in
03:10 76.6 °F 65.7 °F 29.9 in NE 1 mph 2 mph 69 % 0 in
03:20 77 °F 65.7 °F 29.9 in East 2 mph 3 mph 68 % 0 in
03:30 77.7 °F 65.8 °F 29.9 in ESE 2 mph 3 mph 67 % 0 in
03:40 78.8 °F 66.6 °F 29.9 in Calm   2 mph 66 % 0 in
03:50 79.5 °F 66.7 °F 29.9 in South 1 mph 2 mph 65 % 0 in
04:00 80.1 °F 66.4 °F 29.9 in South 1 mph 2 mph 63 % 0 in
04:10 81.1 °F 66.4 °F 29.9 in SE 2 mph 3 mph 61 % 0 in
04:20 82 °F 67.3 °F 29.9 in East 1 mph 2 mph 61 % 0 in
04:30 81.9 °F 66 °F 29.9 in East 1 mph 2 mph 59 % 0 in
04:40 82.9 °F 66.6 °F 30 in East 2 mph 3 mph 58 % 0 in
04:50 84.2 °F 66.7 °F 29.9 in ENE 1 mph 3 mph 56 % 0 in
05:00 85.5 °F 66.9 °F 29.9 in NE 1 mph 2 mph 54 % 0 in
05:10 86.9 °F 67.6 °F 29.9 in Calm   2 mph 53 % 0 in
10:17 86.7 °F 66.9 °F 29.9 in South 2.3 mph 2.3 mph 52 % 0 in
10:22 88.2 °F 67.3 °F 29.9 in SSE 3.5 mph 3.5 mph 50 % 0 in
10:27 88.2 °F 66.6 °F 29.9 in West 2.3 mph 2.3 mph 49 % 0 in
10:32 88.3 °F 66.7 °F 29.9 in South 2.9 mph 2.9 mph 49 % 0 in
10:37 89.4 °F 67.1 °F 29.9 in South 3.5 mph 3.5 mph 48 % 0 in
10:42 90.9 °F 68.5 °F 29.9 in SSW 4.9 mph 4.9 mph 48 % 0 in
10:47 90.3 °F 66.7 °F 29.9 in SW 5.6 mph 5.6 mph 46 % 0 in
10:52 89.4 °F 65.8 °F 29.9 in SSW 3.5 mph 3.5 mph 46 % 0 in
10:57 89.8 °F 65.7 °F 29.9 in SW 2.3 mph 2.3 mph 45 % 0 in
11:02 89.2 °F 65.1 °F 29.9 in SW 4.6 mph 4.6 mph 45 % 0 in
11:07 89.8 °F 65.7 °F 29.9 in West 4 mph 4 mph 45 % 0 in
11:12 89.6 °F 65.5 °F 29.9 in WSW 4.3 mph 4.3 mph 45 % 0 in
11:17 90.3 °F 66 °F 29.9 in WSW 6.2 mph 6.2 mph 45 % 0 in
11:22 90.5 °F 65.7 °F 29.9 in SSW 2.3 mph 2.3 mph 44 % 0 in
11:27 90.3 °F 65.5 °F 29.9 in West 4.6 mph 4.6 mph 44 % 0 in
11:32 90.5 °F 65.7 °F 29.9 in WSW 3.5 mph 3.5 mph 44 % 0 in
11:37 90.9 °F 65.3 °F 29.9 in SW 4.6 mph 4.6 mph 43 % 0 in
11:42 91.2 °F 65.7 °F 29.9 in WSW 9.2 mph 9.2 mph 43 % 0 in
11:47 91.4 °F 64.4 °F 29.9 in SW 9.2 mph 9.2 mph 41 % 0 in
11:52 91.4 °F 63.7 °F 29.9 in West 8.1 mph 8.1 mph 40 % 0 in
11:57 92.1 °F 64.2 °F 29.9 in WSW 8.7 mph 8.7 mph 40 % 0 in
12:02 91.9 °F 64.2 °F 29.9 in SSE 5.8 mph 5.8 mph 40 % 0 in
12:07 92.3 °F 64.6 °F 29.9 in WSW 5.8 mph 5.8 mph 40 % 0 in
12:12 93 °F 65.1 °F 29.9 in SW 5.8 mph 5.8 mph 40 % 0 in
12:17 92.8 °F 64.2 °F 29.9 in SSW 8.1 mph 8.1 mph 39 % 0 in
12:22 93.4 °F 64.8 °F 29.9 in WSW 6.2 mph 6.2 mph 39 % 0 in
12:27 93.4 °F 64 °F 29.9 in SW 5.8 mph 5.8 mph 38 % 0 in
12:32 93.4 °F 63.1 °F 29.9 in WSW 9.2 mph 9.2 mph 37 % 0 in
12:37 93.9 °F 63 °F 29.9 in SSW 8.1 mph 8.1 mph 36 % 0 in
12:42 94.1 °F 63.9 °F 29.9 in SW 4.6 mph 4.6 mph 37 % 0 in
12:47 95.5 °F 64.2 °F 29.9 in West 4.6 mph 4.6 mph 36 % 0 in
12:52 94.8 °F 63.7 °F 29.9 in West 4.6 mph 4.6 mph 36 % 0 in
12:57 93.9 °F 63 °F 29.9 in West 6.9 mph 6.9 mph 36 % 0 in
13:02 94.1 °F 62.2 °F 29.9 in SW 4.6 mph 4.6 mph 35 % 0 in
13:07 95.4 °F 62.4 °F 29.9 in South 4.7 mph 4.7 mph 34 % 0 in
13:12 95.5 °F 62.8 °F 29.9 in SW 8.1 mph 8.1 mph 34 % 0 in
13:17 95.2 °F 62.4 °F 29.9 in SW 6.9 mph 6.9 mph 34 % 0 in
13:22 94.3 °F 61.5 °F 29.9 in WSW 12.7 mph 12.7 mph 34 % 0 in
13:27 95.2 °F 61.5 °F 29.9 in SSW 5.8 mph 5.8 mph 33 % 0 in
13:32 95.2 °F 61.5 °F 29.9 in SW 6.9 mph 6.9 mph 33 % 0 in
13:37 95.4 °F 60.8 °F 29.9 in SW 11.5 mph 11.5 mph 32 % 0 in
13:42 94.5 °F 61 °F 29.9 in SW 10.4 mph 10.4 mph 33 % 0 in
13:47 94.8 °F 61.2 °F 29.9 in SW 12.7 mph 12.7 mph 33 % 0 in
13:52 95 °F 60.4 °F 29.9 in South 4.6 mph 5.4 mph 32 % 0 in
13:57 96.3 °F 61.5 °F 29.9 in SSE 5.8 mph 5.8 mph 32 % 0 in
14:02 95.7 °F 60.3 °F 29.9 in SW 6.4 mph 6.4 mph 31 % 0 in
14:07 95.5 °F 61 °F 29.9 in SW 8.1 mph 8.1 mph 32 % 0 in
14:12 95.5 °F 60.1 °F 29.9 in SSW 5.8 mph 5.8 mph 31 % 0 in
14:17 96.1 °F 60.6 °F 29.9 in SSE 5.8 mph 5.8 mph 31 % 0 in
14:22 96.1 °F 60.6 °F 29.9 in WSW 9.2 mph 9.2 mph 31 % 0 in
14:27 96.4 °F 61 °F 29.9 in SW 5.8 mph 5.8 mph 31 % 0 in
14:32 95.9 °F 60.4 °F 29.9 in West 10.4 mph 10.4 mph 31 % 0 in
14:37 95.4 °F 59.9 °F 29.9 in SW 8.1 mph 8.1 mph 31 % 0 in
14:42 95.4 °F 59.9 °F 29.9 in SSW 10.2 mph 10.2 mph 31 % 0 in
14:47 96.3 °F 60.6 °F 29.9 in ESE 4.6 mph 4.6 mph 31 % 0 in
14:52 96.6 °F 61 °F 29.9 in West 15.4 mph 15.4 mph 31 % 0 in
14:57 96.1 °F 60.6 °F 29.9 in SW 8.1 mph 8.1 mph 31 % 0 in
15:02 97 °F 61.3 °F 29.9 in SSE 5.8 mph 5.8 mph 31 % 0 in
15:07 97.5 °F 61.9 °F 29.9 in WSW 7.6 mph 7.6 mph 31 % 0 in
15:12 97.3 °F 61.5 °F 29.9 in SW 5.8 mph 5.8 mph 31 % 0 in
15:17 97.2 °F 61.5 °F 29.9 in SSW 12.7 mph 12.7 mph 31 % 0 in
15:22 96.3 °F 60.6 °F 29.9 in SW 8.1 mph 8.1 mph 31 % 0 in
15:27 96.8 °F 62.1 °F 29.9 in SW 7.1 mph 7.1 mph 32 % 0 in
15:32 96.6 °F 61.9 °F 29.9 in SSE 6.9 mph 6.9 mph 32 % 0 in
15:37 95.9 °F 61.3 °F 29.9 in SW 6.9 mph 6.9 mph 32 % 0 in
15:38 95.9 °F 61.3 °F 29.9 in ESE 10.4 mph 10.4 mph 32 % 0 in
15:43 95.2 °F 60.6 °F 29.9 in West 6.9 mph 6.9 mph 32 % 0 in
15:48 95.2 °F 61.5 °F 29.9 in South 4.6 mph 4.6 mph 33 % 0 in
15:53 95.5 °F 61.9 °F 29.9 in South 4.6 mph 4.6 mph 33 % 0 in
15:58 95.5 °F 61.9 °F 29.9 in SE 10.4 mph 10.4 mph 33 % 0 in
16:03 95.5 °F 61.9 °F 29.9 in SSW 5.8 mph 5.8 mph 33 % 0 in
16:08 95 °F 61.3 °F 29.9 in SW 10.4 mph 10.4 mph 33 % 0 in
16:13 95.5 °F 61.9 °F 29.9 in South 8.1 mph 8.1 mph 33 % 0 in
16:18 95 °F 61.3 °F 29.9 in SW 12.7 mph 12.7 mph 33 % 0 in
16:23 94.6 °F 61.9 °F 29.9 in SSW 11.5 mph 11.5 mph 34 % 0 in
16:28 95 °F 61.3 °F 29.9 in SSE 8.1 mph 8.1 mph 33 % 0 in
16:33 94.8 °F 62.1 °F 29.9 in WSW 10 mph 10 mph 34 % 0 in
16:38 94.8 °F 62.1 °F 29.9 in South 13.8 mph 13.8 mph 34 % 0 in
16:43 95.2 °F 62.4 °F 29.9 in SW 11.5 mph 11.5 mph 34 % 0 in
16:48 94.8 °F 63 °F 29.9 in SW 5.8 mph 5.8 mph 35 % 0 in
16:53 94.6 °F 62.8 °F 29.9 in SSW 8.1 mph 8.1 mph 35 % 0 in
17:03 94.6 °F 62.8 °F 29.9 in SSW 4.6 mph 4.6 mph 35 % 0 in
17:08 95.2 °F 62.4 °F 29.9 in WSW 6 mph 6 mph 34 % 0 in
17:13 95.2 °F 62.4 °F 29.9 in SW 13.8 mph 13.8 mph 34 % 0 in
17:18 94.5 °F 62.6 °F 29.9 in SW 7.6 mph 7.6 mph 35 % 0 in
17:23 94.5 °F 62.6 °F 29.9 in SW 8.1 mph 8.1 mph 35 % 0 in
17:28 93.7 °F 62.1 °F 29.9 in WSW 10.4 mph 10.4 mph 35 % 0 in
17:33 93.9 °F 62.1 °F 29.9 in SW 8.1 mph 8.1 mph 35 % 0 in
17:38 93.7 °F 61.2 °F 29.9 in SW 7.8 mph 7.8 mph 34 % 0 in
17:43 94.1 °F 62.2 °F 29.9 in SW 6.9 mph 6.9 mph 35 % 0 in
17:48 94.5 °F 61.9 °F 29.9 in SW 8.1 mph 8.1 mph 34 % 0 in
17:53 93.9 °F 61.3 °F 29.9 in ESE 9.2 mph 9.2 mph 34 % 0 in
17:58 94.5 °F 61.9 °F 29.9 in South 5.8 mph 5.8 mph 34 % 0 in
18:03 93.6 °F 61 °F 29.9 in WSW 8.1 mph 8.1 mph 34 % 0 in
18:08 93.9 °F 60.4 °F 29.9 in South 7.4 mph 7.4 mph 33 % 0 in
18:13 93.2 °F 59.7 °F 29.9 in SSW 8.1 mph 8.1 mph 33 % 0 in
18:18 93.2 °F 59.7 °F 29.9 in SW 7.8 mph 7.8 mph 33 % 0 in
18:23 92.7 °F 60.3 °F 29.9 in South 10.4 mph 10.4 mph 34 % 0 in
18:28 92.8 °F 60.3 °F 29.9 in SW 5.8 mph 5.8 mph 34 % 0 in
18:33 92.7 °F 60.3 °F 29.9 in SSW 5.8 mph 5.8 mph 34 % 0 in
18:38 92.5 °F 60.1 °F 29.9 in WNW 6.9 mph 6.9 mph 34 % 0 in
18:43 92.8 °F 60.3 °F 29.9 in SW 9.2 mph 9.2 mph 34 % 0 in
18:48 92.3 °F 60.6 °F 29.8 in SSW 8.5 mph 8.5 mph 35 % 0 in
18:53 91.6 °F 60.1 °F 29.8 in SE 5.8 mph 5.8 mph 35 % 0 in
18:58 91.8 °F 60.3 °F 29.8 in West 8.5 mph 8.5 mph 35 % 0 in
19:03 90.9 °F 60.3 °F 29.9 in SW 8.1 mph 8.1 mph 36 % 0 in
19:08 90.9 °F 60.3 °F 29.9 in SW 6.4 mph 6.4 mph 36 % 0 in
19:10 80.1 °F 61.9 °F 29.9 in NE 1 mph 1 mph 54 % 0 in
19:13 90.7 °F 60.8 °F 29.9 in SW 6.9 mph 6.9 mph 37 % 0 in
19:18 90 °F 60.3 °F 29.9 in WSW 10.4 mph 10.4 mph 37 % 0 in
19:20 80.1 °F 62.4 °F 29.9 in Calm   1 mph 55 % 0 in
19:23 89.4 °F 60.4 °F 29.9 in SSW 7.1 mph 7.1 mph 38 % 0 in
19:28 89.4 °F 60.4 °F 29.9 in SW 5.8 mph 5.8 mph 38 % 0 in
19:30 79.7 °F 62.1 °F 29.9 in North 1 mph 1 mph 55 % 0 in
19:33 89.1 °F 60.1 °F 29.9 in WSW 6.9 mph 6.9 mph 38 % 0 in
19:38 88.5 °F 60.4 °F 29.9 in SW 7.6 mph 7.6 mph 39 % 0 in
19:40 79.5 °F 62.4 °F 29.9 in Calm   1 mph 56 % 0 in
19:43 88.2 °F 60.1 °F 29.9 in South 4.6 mph 4.6 mph 39 % 0 in
19:48 87.8 °F 60.4 °F 29.9 in SSW 5.4 mph 5.4 mph 40 % 0 in
19:50 79.3 °F 62.8 °F 29.9 in NW 1 mph 2 mph 57 % 0 in
19:53 87.3 °F 60.6 °F 29.9 in SW 3.5 mph 3.5 mph 41 % 0 in
19:58 87.1 °F 60.4 °F 29.9 in SW 10.4 mph 10.4 mph 41 % 0 in
20:00 79.2 °F 62.6 °F 29.9 in NNE 1 mph 2 mph 57 % 0 in
20:03 86.7 °F 61 °F 29.8 in SW 8.1 mph 8.1 mph 42 % 0 in
20:08 86.4 °F 60.6 °F 29.8 in WSW 4.6 mph 4.6 mph 42 % 0 in
20:10 79 °F 63 °F 29.9 in Calm   2 mph 58 % 0 in
20:13 86.2 °F 61.2 °F 29.8 in SW 3.5 mph 3.5 mph 43 % 0 in
20:14 86.2 °F 61.2 °F 29.8 in SW 3.5 mph 3.5 mph 43 % 0 in
20:19 86 °F 61 °F 29.9 in WSW 4.6 mph 4.6 mph 43 % 0 in
20:20 78.8 °F 63.3 °F 29.9 in NNE 1 mph 2 mph 59 % 0 in
20:24 85.6 °F 60.6 °F 29.9 in SSW 3.5 mph 3.5 mph 43 % 0 in
20:29 85.6 °F 61.2 °F 29.9 in South 3.5 mph 3.5 mph 44 % 0 in
20:30 78.6 °F 63.7 °F 29.9 in Calm     60 % 0 in
20:34 85.5 °F 61.2 °F 29.8 in SW 3.3 mph 3.3 mph 44 % 0 in
20:39 85.5 °F 61.2 °F 29.8 in WSW 3.5 mph 3.5 mph 44 % 0 in
20:40 78.1 °F 62.6 °F 29.9 in Calm     59 % 0 in
20:44 85.1 °F 61.3 °F 29.8 in South 4.6 mph 4.6 mph 45 % 0 in
20:49 84.9 °F 61.2 °F 29.9 in SW 3.5 mph 3.5 mph 45 % 0 in
20:50 78.1 °F 63.1 °F 29.9 in Calm   1 mph 60 % 0 in
20:54 84.7 °F 61 °F 29.9 in SW 5.8 mph 5.8 mph 45 % 0 in
20:59 84.7 °F 61 °F 29.9 in SW 3.5 mph 3.5 mph 45 % 0 in
21:00 77.9 °F 63.3 °F 29.9 in Calm     61 % 0 in
21:04 84.6 °F 61 °F 29.9 in South 2.4 mph 2.4 mph 45 % 0 in
21:09 84.4 °F 61.3 °F 29.9 in SW 4.6 mph 4.6 mph 46 % 0 in
21:10 77.9 °F 63.9 °F 29.9 in Calm   1 mph 62 % 0 in
21:14 84.2 °F 61.2 °F 29.9 in SW 3.5 mph 3.5 mph 46 % 0 in
21:19 84 °F 61.5 °F 29.9 in SW 2.6 mph 2.6 mph 47 % 0 in
21:20 77.7 °F 64 °F 29.9 in Calm     63 % 0 in
21:21 84 °F 61.5 °F 29.9 in WSW 2.6 mph 2.6 mph 47 % 0 in
21:26 83.8 °F 62.1 °F 29.9 in SSE 2.3 mph 2.3 mph 48 % 0 in
21:30 77.7 °F 64 °F 29.9 in Calm     63 % 0 in
21:31 83.7 °F 61.9 °F 29.9 in SSW 1.2 mph   48 % 0 in
21:36 83.5 °F 61.7 °F 29.9 in SSE 2.3 mph 2.3 mph 48 % 0 in
21:40 77.5 °F 63.9 °F 29.9 in Calm     63 % 0 in
21:41 83.5 °F 61.7 °F 29.9 in Calm     48 % 0 in
21:46 83.3 °F 61.5 °F 29.9 in West 1.2 mph 1.4 mph 48 % 0 in
21:50 77.4 °F 64.2 °F 29.9 in Calm     64 % 0 in
21:51 83.1 °F 61.3 °F 29.9 in SSW 2.3 mph 2.3 mph 48 % 0 in
21:56 82.9 °F 61.9 °F 29.9 in SW 2.3 mph 2.3 mph 49 % 0 in
22:00 77 °F 63.9 °F 29.9 in Calm     64 % 0 in
22:01 82.8 °F 61.5 °F 29.9 in SW 3.6 mph 3.6 mph 49 % 0 in
22:06 82.4 °F 61.9 °F 29.9 in SW 3.5 mph 3.5 mph 50 % 0 in
22:10 76.8 °F 64.2 °F 29.9 in Calm     65 % 0 in
22:11 82.4 °F 61.9 °F 29.9 in WSW 2.3 mph 2.3 mph 50 % 0 in
22:16 82.2 °F 61.7 °F 29.9 in Calm     50 % 0 in
22:20 76.6 °F 64 °F 29.9 in WNW 1 mph 1 mph 65 % 0 in
22:21 82 °F 62.1 °F 29.9 in SSW 1.2 mph   51 % 0 in
22:26 81.9 °F 62.1 °F 29.9 in WSW 1.2 mph 1.2 mph 51 % 0 in
22:30 76.5 °F 64.8 °F 29.9 in Calm   1 mph 67 % 0 in
22:31 81.9 °F 62.1 °F 29.9 in WSW 2.3 mph 2.3 mph 51 % 0 in
22:36 81.7 °F 61.9 °F 29.9 in SW 1.2 mph 1.2 mph 51 % 0 in
22:40 75.9 °F 63.7 °F 29.9 in NW 1 mph 2 mph 66 % 0 in
22:41 81.5 °F 61.5 °F 29.9 in Calm     51 % 0 in
22:46 81.5 °F 62.2 °F 29.9 in Calm     52 % 0 in
22:50 75.7 °F 64 °F 29.9 in Calm   1 mph 67 % 0 in
22:51 81.3 °F 62.1 °F 29.9 in Calm     52 % 0 in
22:56 81.1 °F 61.9 °F 29.9 in SE 1.4 mph   52 % 0 in
23:00 75.4 °F 63.7 °F 29.9 in Calm   1 mph 67 % 0 in
23:01 81.1 °F 61.9 °F 29.9 in SE 1.2 mph   52 % 0 in
23:06 81.1 °F 61.9 °F 29.9 in ESE 2.3 mph   52 % 0 in
23:10 75 °F 64.2 °F 29.9 in Calm   1 mph 69 % 0 in
23:11 81.1 °F 61.9 °F 29.9 in ENE 2.3 mph 2.3 mph 52 % 0 in
23:16 81.1 °F 61.9 °F 29.9 in SW 1.2 mph   52 % 0 in
23:20 75 °F 64.6 °F 29.9 in Calm     70 % 0 in
23:21 81 °F 61.7 °F 29.9 in WSW 1.2 mph   52 % 0 in
23:26 80.8 °F 61.5 °F 29.9 in Calm     52 % 0 in
23:30 74.8 °F 64.4 °F 29.9 in Calm     70 % 0 in
23:31 80.8 °F 61.5 °F 29.9 in Calm     52 % 0 in
23:36 80.6 °F 61.3 °F 29.9 in WSW 1.2 mph   52 % 0 in
23:40 74.8 °F 64.4 °F 29.9 in Calm     70 % 0 in
23:41 80.6 °F 61.3 °F 29.9 in Calm     52 % 0 in
23:46 80.6 °F 61.3 °F 29.9 in Calm     52 % 0 in
23:50 75 °F 64.9 °F 29.9 in Calm   2 mph 71 % 0 in
23:51 80.4 °F 61.7 °F 29.9 in NE 1.2 mph 1.4 mph 53 % 0 in
23:56 80.2 °F 62.1 °F 29.9 in Calm     54 % 0 in
Meteo Sesrovires
Elogis d' Weather Underground - 3.75 mb

Guio original per  Jim McMurry - jmcmurry@mwt.net Adaptat per a la plantilla per  Wim van der Kuil - Leuven-Template.eu

Trobareu la nostra informacio del temps tambe a:

Weather Underground

AWEKAS